sensor_id;sensor_type;location;lat;lon;timestamp;temperature;humidity
30186;DHT22;31152;49.190;8.122;2022-12-11T00:01:16;-2.10;99.90
30186;DHT22;31152;49.190;8.122;2022-12-11T00:03:43;-2.10;99.90
30186;DHT22;31152;49.190;8.122;2022-12-11T00:06:16;-2.10;99.90
30186;DHT22;31152;49.190;8.122;2022-12-11T00:08:45;-2.10;99.90
30186;DHT22;31152;49.190;8.122;2022-12-11T00:11:15;-2.10;99.90
30186;DHT22;31152;49.190;8.122;2022-12-11T00:13:42;-2.10;99.90
30186;DHT22;31152;49.190;8.122;2022-12-11T00:16:09;-2.10;99.90
30186;DHT22;31152;49.190;8.122;2022-12-11T00:18:39;-2.10;99.90
30186;DHT22;31152;49.190;8.122;2022-12-11T00:21:09;-2.20;99.90
30186;DHT22;31152;49.190;8.122;2022-12-11T00:23:36;-2.10;99.90
30186;DHT22;31152;49.190;8.122;2022-12-11T00:26:09;-2.10;99.90
30186;DHT22;31152;49.190;8.122;2022-12-11T00:28:39;-2.10;99.90
30186;DHT22;31152;49.190;8.122;2022-12-11T00:31:10;-2.10;99.90
30186;DHT22;31152;49.190;8.122;2022-12-11T00:33:38;-2.10;99.90
30186;DHT22;31152;49.190;8.122;2022-12-11T00:36:11;-2.10;99.90
30186;DHT22;31152;49.190;8.122;2022-12-11T00:38:38;-2.20;99.90
30186;DHT22;31152;49.190;8.122;2022-12-11T00:41:05;-2.20;99.90
30186;DHT22;31152;49.190;8.122;2022-12-11T00:43:31;-2.20;99.90
30186;DHT22;31152;49.190;8.122;2022-12-11T00:45:58;-2.20;99.90
30186;DHT22;31152;49.190;8.122;2022-12-11T00:48:25;-2.20;99.90
30186;DHT22;31152;49.190;8.122;2022-12-11T00:50:51;-2.20;99.90
30186;DHT22;31152;49.190;8.122;2022-12-11T00:53:18;-2.20;99.90
30186;DHT22;31152;49.190;8.122;2022-12-11T00:55:45;-2.20;99.90
30186;DHT22;31152;49.190;8.122;2022-12-11T00:58:12;-2.20;99.90
30186;DHT22;31152;49.190;8.122;2022-12-11T01:00:40;-2.20;99.90
30186;DHT22;31152;49.190;8.122;2022-12-11T01:03:08;-2.20;99.90
30186;DHT22;31152;49.190;8.122;2022-12-11T01:05:35;-2.20;99.90
30186;DHT22;31152;49.190;8.122;2022-12-11T01:08:03;-2.30;99.90
30186;DHT22;31152;49.190;8.122;2022-12-11T01:10:30;-2.30;99.90
30186;DHT22;31152;49.190;8.122;2022-12-11T01:13:02;-2.30;99.90
30186;DHT22;31152;49.190;8.122;2022-12-11T01:15:32;-2.30;99.90
30186;DHT22;31152;49.190;8.122;2022-12-11T01:18:05;-2.30;99.90
30186;DHT22;31152;49.190;8.122;2022-12-11T01:20:32;-2.30;99.90
30186;DHT22;31152;49.190;8.122;2022-12-11T01:23:02;-2.30;99.90
30186;DHT22;31152;49.190;8.122;2022-12-11T01:25:28;-2.30;99.90
30186;DHT22;31152;49.190;8.122;2022-12-11T01:27:58;-2.30;99.90
30186;DHT22;31152;49.190;8.122;2022-12-11T01:30:27;-2.30;99.90
30186;DHT22;31152;49.190;8.122;2022-12-11T01:32:53;-2.30;99.90
30186;DHT22;31152;49.190;8.122;2022-12-11T01:35:23;-2.30;99.90
30186;DHT22;31152;49.190;8.122;2022-12-11T01:37:49;-2.40;99.90
30186;DHT22;31152;49.190;8.122;2022-12-11T01:40:18;-2.40;99.90
30186;DHT22;31152;49.190;8.122;2022-12-11T01:42:45;-2.50;99.90
30186;DHT22;31152;49.190;8.122;2022-12-11T01:45:25;-2.60;99.90
30186;DHT22;31152;49.190;8.122;2022-12-11T01:48:01;-2.60;99.90
30186;DHT22;31152;49.190;8.122;2022-12-11T01:50:30;-2.70;99.90
30186;DHT22;31152;49.190;8.122;2022-12-11T01:53:02;-2.70;99.90
30186;DHT22;31152;49.190;8.122;2022-12-11T01:55:31;-2.70;99.90
30186;DHT22;31152;49.190;8.122;2022-12-11T01:57:58;-2.70;99.90
30186;DHT22;31152;49.190;8.122;2022-12-11T02:00:25;-2.70;99.90
30186;DHT22;31152;49.190;8.122;2022-12-11T02:02:52;-2.70;99.90
30186;DHT22;31152;49.190;8.122;2022-12-11T02:05:19;-2.60;99.90
30186;DHT22;31152;49.190;8.122;2022-12-11T02:07:52;-2.60;99.90
30186;DHT22;31152;49.190;8.122;2022-12-11T02:10:23;-2.70;99.90
30186;DHT22;31152;49.190;8.122;2022-12-11T02:13:06;-2.60;99.90
30186;DHT22;31152;49.190;8.122;2022-12-11T02:16:05;-2.60;99.90
30186;DHT22;31152;49.190;8.122;2022-12-11T02:18:48;-2.60;99.90
30186;DHT22;31152;49.190;8.122;2022-12-11T02:21:34;-2.50;99.90
30186;DHT22;31152;49.190;8.122;2022-12-11T02:27:16;-2.40;99.90
30186;DHT22;31152;49.190;8.122;2022-12-11T02:30:02;-2.40;99.90
30186;DHT22;31152;49.190;8.122;2022-12-11T02:32:55;-2.40;99.90
30186;DHT22;31152;49.190;8.122;2022-12-11T02:35:49;-2.30;99.90
30186;DHT22;31152;49.190;8.122;2022-12-11T02:38:20;-2.20;99.90
30186;DHT22;31152;49.190;8.122;2022-12-11T02:40:51;-2.20;99.90
30186;DHT22;31152;49.190;8.122;2022-12-11T02:43:19;-2.10;99.90
30186;DHT22;31152;49.190;8.122;2022-12-11T02:45:47;-2.10;99.90
30186;DHT22;31152;49.190;8.122;2022-12-11T02:48:16;-2.00;99.90
30186;DHT22;31152;49.190;8.122;2022-12-11T02:50:46;-2.00;99.90
30186;DHT22;31152;49.190;8.122;2022-12-11T02:53:19;-1.90;99.90
30186;DHT22;31152;49.190;8.122;2022-12-11T02:55:50;-1.90;99.90
30186;DHT22;31152;49.190;8.122;2022-12-11T02:58:22;-1.90;99.90
30186;DHT22;31152;49.190;8.122;2022-12-11T03:00:50;-1.80;99.90
30186;DHT22;31152;49.190;8.122;2022-12-11T03:03:17;-1.80;99.90
30186;DHT22;31152;49.190;8.122;2022-12-11T03:05:44;-1.80;99.90
30186;DHT22;31152;49.190;8.122;2022-12-11T03:08:14;-1.80;99.90
30186;DHT22;31152;49.190;8.122;2022-12-11T03:10:44;-1.70;99.90
30186;DHT22;31152;49.190;8.122;2022-12-11T03:13:17;-1.70;99.90
30186;DHT22;31152;49.190;8.122;2022-12-11T03:21:05;-1.70;99.90
30186;DHT22;31152;49.190;8.122;2022-12-11T03:23:41;-1.70;99.90
30186;DHT22;31152;49.190;8.122;2022-12-11T03:26:11;-1.60;99.90
30186;DHT22;31152;49.190;8.122;2022-12-11T03:31:13;-1.60;99.90
30186;DHT22;31152;49.190;8.122;2022-12-11T03:33:47;-1.60;99.90
30186;DHT22;31152;49.190;8.122;2022-12-11T03:36:20;-1.60;99.90
30186;DHT22;31152;49.190;8.122;2022-12-11T03:38:53;-1.60;99.90
30186;DHT22;31152;49.190;8.122;2022-12-11T03:41:24;-1.60;99.90
30186;DHT22;31152;49.190;8.122;2022-12-11T03:43:56;-1.60;99.90
30186;DHT22;31152;49.190;8.122;2022-12-11T03:46:28;-1.50;99.90
30186;DHT22;31152;49.190;8.122;2022-12-11T03:49:00;-1.50;99.90
30186;DHT22;31152;49.190;8.122;2022-12-11T03:51:28;-1.40;99.90
30186;DHT22;31152;49.190;8.122;2022-12-11T03:53:56;-1.40;99.90
30186;DHT22;31152;49.190;8.122;2022-12-11T03:56:25;-1.40;99.90
30186;DHT22;31152;49.190;8.122;2022-12-11T03:58:54;-1.40;99.90
30186;DHT22;31152;49.190;8.122;2022-12-11T04:01:22;-1.40;99.90
30186;DHT22;31152;49.190;8.122;2022-12-11T04:03:49;-1.40;99.90
30186;DHT22;31152;49.190;8.122;2022-12-11T04:06:16;-1.30;99.90
30186;DHT22;31152;49.190;8.122;2022-12-11T04:08:43;-1.30;99.90
30186;DHT22;31152;49.190;8.122;2022-12-11T04:11:12;-1.30;99.90
30186;DHT22;31152;49.190;8.122;2022-12-11T04:14:01;-1.30;99.90
30186;DHT22;31152;49.190;8.122;2022-12-11T04:16:46;-1.20;99.90
30186;DHT22;31152;49.190;8.122;2022-12-11T04:19:16;-1.30;99.90
30186;DHT22;31152;49.190;8.122;2022-12-11T04:22:02;-1.30;99.90
30186;DHT22;31152;49.190;8.122;2022-12-11T04:24:48;-1.20;99.90
30186;DHT22;31152;49.190;8.122;2022-12-11T04:27:16;-1.20;99.90
30186;DHT22;31152;49.190;8.122;2022-12-11T04:30:08;-1.20;99.90
30186;DHT22;31152;49.190;8.122;2022-12-11T04:32:36;-1.20;99.90
30186;DHT22;31152;49.190;8.122;2022-12-11T04:35:03;-1.10;99.90
30186;DHT22;31152;49.190;8.122;2022-12-11T04:37:32;-1.10;99.90
30186;DHT22;31152;49.190;8.122;2022-12-11T04:39:59;-1.10;99.90
30186;DHT22;31152;49.190;8.122;2022-12-11T04:42:26;-1.00;99.90
30186;DHT22;31152;49.190;8.122;2022-12-11T04:44:55;-1.10;99.90
30186;DHT22;31152;49.190;8.122;2022-12-11T04:47:23;-1.10;99.90
30186;DHT22;31152;49.190;8.122;2022-12-11T04:49:53;-1.10;99.90
30186;DHT22;31152;49.190;8.122;2022-12-11T04:52:19;-1.10;99.90
30186;DHT22;31152;49.190;8.122;2022-12-11T04:54:46;-1.00;99.90
30186;DHT22;31152;49.190;8.122;2022-12-11T04:57:13;-1.10;99.90
30186;DHT22;31152;49.190;8.122;2022-12-11T04:59:40;-1.00;99.90
30186;DHT22;31152;49.190;8.122;2022-12-11T05:02:06;-1.00;99.90
30186;DHT22;31152;49.190;8.122;2022-12-11T05:04:34;-1.00;99.90
30186;DHT22;31152;49.190;8.122;2022-12-11T05:07:00;-1.00;99.90
30186;DHT22;31152;49.190;8.122;2022-12-11T05:09:30;-1.10;99.90
30186;DHT22;31152;49.190;8.122;2022-12-11T05:11:57;-1.10;99.90
30186;DHT22;31152;49.190;8.122;2022-12-11T05:14:23;-1.00;99.90
30186;DHT22;31152;49.190;8.122;2022-12-11T05:16:51;-1.00;99.90
30186;DHT22;31152;49.190;8.122;2022-12-11T05:19:18;-1.10;99.90
30186;DHT22;31152;49.190;8.122;2022-12-11T05:21:45;-1.10;99.90
30186;DHT22;31152;49.190;8.122;2022-12-11T05:24:11;-1.10;99.90
30186;DHT22;31152;49.190;8.122;2022-12-11T05:26:40;-1.10;99.90
30186;DHT22;31152;49.190;8.122;2022-12-11T05:29:07;-1.20;99.90
30186;DHT22;31152;49.190;8.122;2022-12-11T05:31:36;-1.20;99.90
30186;DHT22;31152;49.190;8.122;2022-12-11T05:34:03;-1.10;99.90
30186;DHT22;31152;49.190;8.122;2022-12-11T05:36:32;-1.10;99.90
30186;DHT22;31152;49.190;8.122;2022-12-11T05:39:02;-1.10;99.90
30186;DHT22;31152;49.190;8.122;2022-12-11T05:41:30;-1.10;99.90
30186;DHT22;31152;49.190;8.122;2022-12-11T05:43:58;-1.10;99.90
30186;DHT22;31152;49.190;8.122;2022-12-11T05:46:27;-1.10;99.90
30186;DHT22;31152;49.190;8.122;2022-12-11T05:48:58;-1.10;99.90
30186;DHT22;31152;49.190;8.122;2022-12-11T05:51:26;-1.10;99.90
30186;DHT22;31152;49.190;8.122;2022-12-11T05:53:54;-1.10;99.90
30186;DHT22;31152;49.190;8.122;2022-12-11T05:56:24;-1.10;99.90
30186;DHT22;31152;49.190;8.122;2022-12-11T05:58:52;-1.10;99.90
30186;DHT22;31152;49.190;8.122;2022-12-11T06:01:24;-1.10;99.90
30186;DHT22;31152;49.190;8.122;2022-12-11T06:03:53;-1.10;99.90
30186;DHT22;31152;49.190;8.122;2022-12-11T06:06:20;-1.20;99.90
30186;DHT22;31152;49.190;8.122;2022-12-11T06:09:05;-1.20;99.90
30186;DHT22;31152;49.190;8.122;2022-12-11T06:11:33;-1.20;99.90
30186;DHT22;31152;49.190;8.122;2022-12-11T06:14:03;-1.20;99.90
30186;DHT22;31152;49.190;8.122;2022-12-11T06:16:30;-1.30;99.90
30186;DHT22;31152;49.190;8.122;2022-12-11T06:18:57;-1.30;99.90
30186;DHT22;31152;49.190;8.122;2022-12-11T06:21:28;-1.40;99.90
30186;DHT22;31152;49.190;8.122;2022-12-11T06:24:00;-1.30;99.90
30186;DHT22;31152;49.190;8.122;2022-12-11T06:26:27;-1.30;99.90
30186;DHT22;31152;49.190;8.122;2022-12-11T06:28:54;-1.30;99.90
30186;DHT22;31152;49.190;8.122;2022-12-11T06:31:21;-1.30;99.90
30186;DHT22;31152;49.190;8.122;2022-12-11T06:33:48;-1.30;99.90
30186;DHT22;31152;49.190;8.122;2022-12-11T06:36:21;-1.30;99.90
30186;DHT22;31152;49.190;8.122;2022-12-11T06:38:51;-1.30;99.90
30186;DHT22;31152;49.190;8.122;2022-12-11T06:41:20;-1.30;99.90
30186;DHT22;31152;49.190;8.122;2022-12-11T06:43:49;-1.30;99.90
30186;DHT22;31152;49.190;8.122;2022-12-11T06:46:17;-1.30;99.90
30186;DHT22;31152;49.190;8.122;2022-12-11T06:48:45;-1.30;99.90
30186;DHT22;31152;49.190;8.122;2022-12-11T06:51:18;-1.30;99.90
30186;DHT22;31152;49.190;8.122;2022-12-11T06:53:50;-1.30;99.90
30186;DHT22;31152;49.190;8.122;2022-12-11T06:56:19;-1.30;99.90
30186;DHT22;31152;49.190;8.122;2022-12-11T06:58:46;-1.30;99.90
30186;DHT22;31152;49.190;8.122;2022-12-11T07:03:44;-1.40;99.90
30186;DHT22;31152;49.190;8.122;2022-12-11T07:06:12;-1.40;99.90
30186;DHT22;31152;49.190;8.122;2022-12-11T07:08:39;-1.40;99.90
30186;DHT22;31152;49.190;8.122;2022-12-11T07:11:11;-1.40;99.90
30186;DHT22;31152;49.190;8.122;2022-12-11T07:13:39;-1.40;99.90
30186;DHT22;31152;49.190;8.122;2022-12-11T07:16:09;-1.40;99.90
30186;DHT22;31152;49.190;8.122;2022-12-11T07:18:41;-1.40;99.90
30186;DHT22;31152;49.190;8.122;2022-12-11T07:21:10;-1.40;99.90
30186;DHT22;31152;49.190;8.122;2022-12-11T07:23:37;-1.40;99.90
30186;DHT22;31152;49.190;8.122;2022-12-11T07:26:06;-1.40;99.90
30186;DHT22;31152;49.190;8.122;2022-12-11T07:28:34;-1.40;99.90
30186;DHT22;31152;49.190;8.122;2022-12-11T07:31:11;-1.30;99.90
30186;DHT22;31152;49.190;8.122;2022-12-11T07:33:40;-1.30;99.90
30186;DHT22;31152;49.190;8.122;2022-12-11T07:36:08;-1.30;99.90
30186;DHT22;31152;49.190;8.122;2022-12-11T07:38:35;-1.30;99.90
30186;DHT22;31152;49.190;8.122;2022-12-11T07:41:04;-1.30;99.90
30186;DHT22;31152;49.190;8.122;2022-12-11T07:43:32;-1.30;99.90
30186;DHT22;31152;49.190;8.122;2022-12-11T07:46:00;-1.30;99.90
30186;DHT22;31152;49.190;8.122;2022-12-11T07:48:29;-1.30;99.90
30186;DHT22;31152;49.190;8.122;2022-12-11T07:51:12;-1.30;99.90
30186;DHT22;31152;49.190;8.122;2022-12-11T07:53:47;-1.30;99.90
30186;DHT22;31152;49.190;8.122;2022-12-11T07:56:15;-1.20;99.90
30186;DHT22;31152;49.190;8.122;2022-12-11T07:58:42;-1.10;99.90
30186;DHT22;31152;49.190;8.122;2022-12-11T08:01:17;-1.10;99.90
30186;DHT22;31152;49.190;8.122;2022-12-11T08:03:45;-1.10;99.90
30186;DHT22;31152;49.190;8.122;2022-12-11T08:06:12;-1.10;99.90
30186;DHT22;31152;49.190;8.122;2022-12-11T08:08:39;-1.10;99.90
30186;DHT22;31152;49.190;8.122;2022-12-11T08:11:10;-1.10;99.90
30186;DHT22;31152;49.190;8.122;2022-12-11T08:13:37;-1.20;99.90
30186;DHT22;31152;49.190;8.122;2022-12-11T08:16:06;-1.10;99.90
30186;DHT22;31152;49.190;8.122;2022-12-11T08:18:34;-1.10;99.90
30186;DHT22;31152;49.190;8.122;2022-12-11T08:21:05;-1.00;99.90
30186;DHT22;31152;49.190;8.122;2022-12-11T08:23:33;-1.00;99.90
30186;DHT22;31152;49.190;8.122;2022-12-11T08:26:08;-0.90;99.90
30186;DHT22;31152;49.190;8.122;2022-12-11T08:28:35;-0.90;99.90
30186;DHT22;31152;49.190;8.122;2022-12-11T08:31:06;-0.90;99.90
30186;DHT22;31152;49.190;8.122;2022-12-11T08:33:35;-0.90;99.90
30186;DHT22;31152;49.190;8.122;2022-12-11T08:36:07;-0.90;99.90
30186;DHT22;31152;49.190;8.122;2022-12-11T08:38:34;-0.80;99.90
30186;DHT22;31152;49.190;8.122;2022-12-11T08:41:25;-0.80;99.90
30186;DHT22;31152;49.190;8.122;2022-12-11T08:43:52;-0.70;99.90
30186;DHT22;31152;49.190;8.122;2022-12-11T08:46:22;-0.70;99.90
30186;DHT22;31152;49.190;8.122;2022-12-11T08:48:49;-0.70;99.90
30186;DHT22;31152;49.190;8.122;2022-12-11T08:51:18;-0.60;99.90
30186;DHT22;31152;49.190;8.122;2022-12-11T08:53:46;-0.60;99.90
30186;DHT22;31152;49.190;8.122;2022-12-11T08:56:14;-0.60;99.90
30186;DHT22;31152;49.190;8.122;2022-12-11T08:58:42;-0.60;99.90
30186;DHT22;31152;49.190;8.122;2022-12-11T09:01:15;-0.60;99.90
30186;DHT22;31152;49.190;8.122;2022-12-11T09:03:43;-0.50;99.90
30186;DHT22;31152;49.190;8.122;2022-12-11T09:06:12;-0.50;99.90
30186;DHT22;31152;49.190;8.122;2022-12-11T09:08:40;-0.50;99.90
30186;DHT22;31152;49.190;8.122;2022-12-11T09:11:30;-0.40;99.90
30186;DHT22;31152;49.190;8.122;2022-12-11T09:14:00;-0.30;99.90
30186;DHT22;31152;49.190;8.122;2022-12-11T09:16:34;-0.20;99.90
30186;DHT22;31152;49.190;8.122;2022-12-11T09:19:03;-0.20;99.90
30186;DHT22;31152;49.190;8.122;2022-12-11T09:21:30;-0.10;99.90
30186;DHT22;31152;49.190;8.122;2022-12-11T09:23:58;-0.10;99.90
30186;DHT22;31152;49.190;8.122;2022-12-11T09:26:27;-0.10;99.90
30186;DHT22;31152;49.190;8.122;2022-12-11T09:28:54;0.00;99.90
30186;DHT22;31152;49.190;8.122;2022-12-11T09:31:25;0.00;99.90
30186;DHT22;31152;49.190;8.122;2022-12-11T09:33:57;0.00;99.90
30186;DHT22;31152;49.190;8.122;2022-12-11T09:36:24;0.00;99.90
30186;DHT22;31152;49.190;8.122;2022-12-11T09:38:53;0.10;99.90
30186;DHT22;31152;49.190;8.122;2022-12-11T09:41:33;0.20;99.90
30186;DHT22;31152;49.190;8.122;2022-12-11T09:46:37;0.20;99.90
30186;DHT22;31152;49.190;8.122;2022-12-11T09:49:30;0.30;99.90
30186;DHT22;31152;49.190;8.122;2022-12-11T09:52:05;0.40;99.90
30186;DHT22;31152;49.190;8.122;2022-12-11T09:54:34;0.40;99.90
30186;DHT22;31152;49.190;8.122;2022-12-11T10:17:10;0.70;99.90
30186;DHT22;31152;49.190;8.122;2022-12-11T10:19:40;0.70;99.90
30186;DHT22;31152;49.190;8.122;2022-12-11T10:22:20;0.70;99.90
30186;DHT22;31152;49.190;8.122;2022-12-11T10:27:42;0.90;99.90
30186;DHT22;31152;49.190;8.122;2022-12-11T10:30:22;0.90;99.90
30186;DHT22;31152;49.190;8.122;2022-12-11T10:35:57;0.90;99.90
30186;DHT22;31152;49.190;8.122;2022-12-11T10:38:28;0.80;99.90
30186;DHT22;31152;49.190;8.122;2022-12-11T10:41:01;0.90;99.90
30186;DHT22;31152;49.190;8.122;2022-12-11T10:43:39;1.00;99.90
30186;DHT22;31152;49.190;8.122;2022-12-11T10:46:26;1.00;99.90
30186;DHT22;31152;49.190;8.122;2022-12-11T10:49:00;1.10;99.90
30186;DHT22;31152;49.190;8.122;2022-12-11T10:51:35;1.20;99.90
30186;DHT22;31152;49.190;8.122;2022-12-11T10:54:16;1.30;99.90
30186;DHT22;31152;49.190;8.122;2022-12-11T10:56:46;1.30;99.90
30186;DHT22;31152;49.190;8.122;2022-12-11T11:01:49;1.30;99.90
30186;DHT22;31152;49.190;8.122;2022-12-11T11:04:22;1.30;99.90
30186;DHT22;31152;49.190;8.122;2022-12-11T11:07:13;1.30;99.90
30186;DHT22;31152;49.190;8.122;2022-12-11T11:09:40;1.30;99.90
30186;DHT22;31152;49.190;8.122;2022-12-11T11:12:43;1.30;99.90
30186;DHT22;31152;49.190;8.122;2022-12-11T11:15:24;1.40;99.90
30186;DHT22;31152;49.190;8.122;2022-12-11T11:17:54;1.30;99.90
30186;DHT22;31152;49.190;8.122;2022-12-11T11:20:27;1.30;99.90
30186;DHT22;31152;49.190;8.122;2022-12-11T11:23:02;1.20;99.90
30186;DHT22;31152;49.190;8.122;2022-12-11T11:25:30;1.20;99.90
30186;DHT22;31152;49.190;8.122;2022-12-11T11:28:03;1.30;99.90
30186;DHT22;31152;49.190;8.122;2022-12-11T11:33:04;1.40;99.90
30186;DHT22;31152;49.190;8.122;2022-12-11T11:35:51;1.40;99.90
30186;DHT22;31152;49.190;8.122;2022-12-11T11:38:21;1.40;99.90
30186;DHT22;31152;49.190;8.122;2022-12-11T11:43:53;1.40;99.90
30186;DHT22;31152;49.190;8.122;2022-12-11T11:46:32;1.40;99.90
30186;DHT22;31152;49.190;8.122;2022-12-11T11:49:27;1.40;99.90
30186;DHT22;31152;49.190;8.122;2022-12-11T11:55:16;1.40;99.90
30186;DHT22;31152;49.190;8.122;2022-12-11T11:58:01;1.40;99.90
30186;DHT22;31152;49.190;8.122;2022-12-11T12:00:33;1.40;99.90
30186;DHT22;31152;49.190;8.122;2022-12-11T12:05:36;1.50;99.90
30186;DHT22;31152;49.190;8.122;2022-12-11T12:08:10;1.50;99.90
30186;DHT22;31152;49.190;8.122;2022-12-11T12:10:49;1.50;99.90
30186;DHT22;31152;49.190;8.122;2022-12-11T12:13:35;1.40;99.90
30186;DHT22;31152;49.190;8.122;2022-12-11T12:21:52;1.60;99.90
30186;DHT22;31152;49.190;8.122;2022-12-11T12:30:26;1.60;99.90
30186;DHT22;31152;49.190;8.122;2022-12-11T12:35:54;1.60;99.90
30186;DHT22;31152;49.190;8.122;2022-12-11T12:38:52;1.60;99.90
30186;DHT22;31152;49.190;8.122;2022-12-11T12:41:43;1.60;99.90
30186;DHT22;31152;49.190;8.122;2022-12-11T12:44:14;1.60;99.90
30186;DHT22;31152;49.190;8.122;2022-12-11T12:46:54;1.60;99.90
30186;DHT22;31152;49.190;8.122;2022-12-11T12:51:54;1.60;99.90
30186;DHT22;31152;49.190;8.122;2022-12-11T12:54:23;1.60;99.90
30186;DHT22;31152;49.190;8.122;2022-12-11T12:56:52;1.60;99.90
30186;DHT22;31152;49.190;8.122;2022-12-11T12:59:27;1.70;99.90
30186;DHT22;31152;49.190;8.122;2022-12-11T13:01:59;1.60;99.90
30186;DHT22;31152;49.190;8.122;2022-12-11T13:04:41;1.70;99.90
30186;DHT22;31152;49.190;8.122;2022-12-11T13:07:29;1.70;99.90
30186;DHT22;31152;49.190;8.122;2022-12-11T13:10:03;1.70;99.90
30186;DHT22;31152;49.190;8.122;2022-12-11T13:12:33;1.70;99.90
30186;DHT22;31152;49.190;8.122;2022-12-11T13:15:05;1.70;99.90
30186;DHT22;31152;49.190;8.122;2022-12-11T13:17:37;1.70;99.90
30186;DHT22;31152;49.190;8.122;2022-12-11T13:20:17;1.70;99.90
30186;DHT22;31152;49.190;8.122;2022-12-11T13:23:27;1.70;99.90
30186;DHT22;31152;49.190;8.122;2022-12-11T13:25:57;1.60;99.90
30186;DHT22;31152;49.190;8.122;2022-12-11T13:28:31;1.60;99.90
30186;DHT22;31152;49.190;8.122;2022-12-11T13:33:29;1.50;99.90
30186;DHT22;31152;49.190;8.122;2022-12-11T13:36:27;1.50;99.90
30186;DHT22;31152;49.190;8.122;2022-12-11T13:39:07;1.50;99.90
30186;DHT22;31152;49.190;8.122;2022-12-11T13:41:45;1.50;99.90
30186;DHT22;31152;49.190;8.122;2022-12-11T13:44:20;1.50;99.90
30186;DHT22;31152;49.190;8.122;2022-12-11T13:46:49;1.50;99.90
30186;DHT22;31152;49.190;8.122;2022-12-11T13:49:27;1.50;99.90
30186;DHT22;31152;49.190;8.122;2022-12-11T13:51:57;1.40;99.90
30186;DHT22;31152;49.190;8.122;2022-12-11T13:54:26;1.40;99.90
30186;DHT22;31152;49.190;8.122;2022-12-11T13:57:03;1.30;99.90
30186;DHT22;31152;49.190;8.122;2022-12-11T13:59:40;1.30;99.90
30186;DHT22;31152;49.190;8.122;2022-12-11T14:02:14;1.30;99.90
30186;DHT22;31152;49.190;8.122;2022-12-11T14:04:44;1.30;99.90
30186;DHT22;31152;49.190;8.122;2022-12-11T14:07:16;1.30;99.90
30186;DHT22;31152;49.190;8.122;2022-12-11T14:09:45;1.30;99.90
30186;DHT22;31152;49.190;8.122;2022-12-11T14:12:18;1.30;99.90
30186;DHT22;31152;49.190;8.122;2022-12-11T14:14:52;1.30;99.90
30186;DHT22;31152;49.190;8.122;2022-12-11T14:17:29;1.30;99.90
30186;DHT22;31152;49.190;8.122;2022-12-11T14:20:00;1.30;99.90
30186;DHT22;31152;49.190;8.122;2022-12-11T14:22:29;1.30;99.90
30186;DHT22;31152;49.190;8.122;2022-12-11T14:24:58;1.20;99.90
30186;DHT22;31152;49.190;8.122;2022-12-11T14:27:28;1.30;99.90
30186;DHT22;31152;49.190;8.122;2022-12-11T14:29:55;1.30;99.90
30186;DHT22;31152;49.190;8.122;2022-12-11T14:32:32;1.30;99.90
30186;DHT22;31152;49.190;8.122;2022-12-11T14:35:03;1.20;99.90
30186;DHT22;31152;49.190;8.122;2022-12-11T14:37:33;1.10;99.90
30186;DHT22;31152;49.190;8.122;2022-12-11T14:40:06;1.10;99.90
30186;DHT22;31152;49.190;8.122;2022-12-11T14:42:39;1.00;99.90
30186;DHT22;31152;49.190;8.122;2022-12-11T14:45:15;1.10;99.90
30186;DHT22;31152;49.190;8.122;2022-12-11T14:47:44;1.10;99.90
30186;DHT22;31152;49.190;8.122;2022-12-11T14:50:21;1.00;99.90
30186;DHT22;31152;49.190;8.122;2022-12-11T14:52:58;1.00;99.90
30186;DHT22;31152;49.190;8.122;2022-12-11T14:55:31;1.00;99.90
30186;DHT22;31152;49.190;8.122;2022-12-11T14:58:05;1.00;99.90
30186;DHT22;31152;49.190;8.122;2022-12-11T15:00:35;0.90;99.90
30186;DHT22;31152;49.190;8.122;2022-12-11T15:03:19;0.90;99.90
30186;DHT22;31152;49.190;8.122;2022-12-11T15:05:52;0.90;99.90
30186;DHT22;31152;49.190;8.122;2022-12-11T15:08:33;0.90;99.90
30186;DHT22;31152;49.190;8.122;2022-12-11T15:11:14;1.00;99.90
30186;DHT22;31152;49.190;8.122;2022-12-11T15:13:59;0.90;99.90
30186;DHT22;31152;49.190;8.122;2022-12-11T15:16:31;0.90;99.90
30186;DHT22;31152;49.190;8.122;2022-12-11T15:18:58;0.90;99.90
30186;DHT22;31152;49.190;8.122;2022-12-11T15:21:30;0.90;99.90
30186;DHT22;31152;49.190;8.122;2022-12-11T15:23:59;0.90;99.90
30186;DHT22;31152;49.190;8.122;2022-12-11T15:26:39;0.90;99.90
30186;DHT22;31152;49.190;8.122;2022-12-11T15:29:38;0.80;99.90
30186;DHT22;31152;49.190;8.122;2022-12-11T15:34:49;0.80;99.90
30186;DHT22;31152;49.190;8.122;2022-12-11T15:37:26;0.70;99.90
30186;DHT22;31152;49.190;8.122;2022-12-11T15:39:58;0.70;99.90
30186;DHT22;31152;49.190;8.122;2022-12-11T15:42:28;0.70;99.90
30186;DHT22;31152;49.190;8.122;2022-12-11T15:44:59;0.60;99.90
30186;DHT22;31152;49.190;8.122;2022-12-11T15:47:29;0.60;99.90
30186;DHT22;31152;49.190;8.122;2022-12-11T15:50:16;0.60;99.90
30186;DHT22;31152;49.190;8.122;2022-12-11T15:52:44;0.60;99.90
30186;DHT22;31152;49.190;8.122;2022-12-11T15:55:11;0.70;99.90
30186;DHT22;31152;49.190;8.122;2022-12-11T15:57:54;0.70;99.90
30186;DHT22;31152;49.190;8.122;2022-12-11T16:00:24;0.70;99.90
30186;DHT22;31152;49.190;8.122;2022-12-11T16:02:53;0.60;99.90
30186;DHT22;31152;49.190;8.122;2022-12-11T16:05:20;0.70;99.90
30186;DHT22;31152;49.190;8.122;2022-12-11T16:07:49;0.70;99.90
30186;DHT22;31152;49.190;8.122;2022-12-11T16:10:25;0.60;99.90
30186;DHT22;31152;49.190;8.122;2022-12-11T16:12:52;0.60;99.90
30186;DHT22;31152;49.190;8.122;2022-12-11T16:15:25;0.60;99.90
30186;DHT22;31152;49.190;8.122;2022-12-11T16:18:10;0.60;99.90
30186;DHT22;31152;49.190;8.122;2022-12-11T16:20:41;0.60;99.90
30186;DHT22;31152;49.190;8.122;2022-12-11T16:23:08;0.60;99.90
30186;DHT22;31152;49.190;8.122;2022-12-11T16:25:39;0.60;99.90
30186;DHT22;31152;49.190;8.122;2022-12-11T16:28:08;0.60;99.90
30186;DHT22;31152;49.190;8.122;2022-12-11T16:30:38;0.50;99.90
30186;DHT22;31152;49.190;8.122;2022-12-11T16:33:06;0.60;99.90
30186;DHT22;31152;49.190;8.122;2022-12-11T16:35:39;0.50;99.90
30186;DHT22;31152;49.190;8.122;2022-12-11T16:38:06;0.50;99.90
30186;DHT22;31152;49.190;8.122;2022-12-11T16:40:33;0.50;99.90
30186;DHT22;31152;49.190;8.122;2022-12-11T16:43:00;0.50;99.90
30186;DHT22;31152;49.190;8.122;2022-12-11T16:45:28;0.50;99.90
30186;DHT22;31152;49.190;8.122;2022-12-11T16:47:54;0.50;99.90
30186;DHT22;31152;49.190;8.122;2022-12-11T16:50:21;0.50;99.90
30186;DHT22;31152;49.190;8.122;2022-12-11T16:52:49;0.50;99.90
30186;DHT22;31152;49.190;8.122;2022-12-11T16:55:18;0.50;99.90
30186;DHT22;31152;49.190;8.122;2022-12-11T16:57:47;0.50;99.90
30186;DHT22;31152;49.190;8.122;2022-12-11T17:00:15;0.50;99.90
30186;DHT22;31152;49.190;8.122;2022-12-11T17:02:41;0.60;99.90
30186;DHT22;31152;49.190;8.122;2022-12-11T17:05:08;0.50;99.90
30186;DHT22;31152;49.190;8.122;2022-12-11T17:07:35;0.50;99.90
30186;DHT22;31152;49.190;8.122;2022-12-11T17:10:03;0.50;99.90
30186;DHT22;31152;49.190;8.122;2022-12-11T17:12:29;0.50;99.90
30186;DHT22;31152;49.190;8.122;2022-12-11T17:14:56;0.50;99.90
30186;DHT22;31152;49.190;8.122;2022-12-11T17:17:23;0.50;99.90
30186;DHT22;31152;49.190;8.122;2022-12-11T17:19:50;0.50;99.90
30186;DHT22;31152;49.190;8.122;2022-12-11T17:22:17;0.50;99.90
30186;DHT22;31152;49.190;8.122;2022-12-11T17:24:44;0.50;99.90